Welcome to Northern Hawkes Bay. New Zealand.
PWS Header
      nz Flag



Hit Counter


W3C Valid W3C Valid logo


    Wairoa

Select any of the Stations below to visit their websites.










Historic Data from Weather Underground
Select the location of interest below. Wairoa is the default. Please have patience, this Data is slow to load in.
Northern Hawkes Bay Historical Data
Daily Summary for March 1, 2017 Units:  Metric    English   Both
« Previous Day
Next Day »
Daily Weekly Monthly Yearly Custom
  High: Low: Average:
Temperature: 27.1 °C 12.3 °C 18 °C
Dew Point: 17.4 °C 11.8 °C 14.7 °C
Humidity: 99% 46% 83%
Wind Speed: 11.1km/h 0.0km/h 2.9km/h
Wind Gust: 17.2km/h - -
Wind- - West
Pressure: 1033.4 hPa 1026.0 hPa -
Precipitation: 0.0 mm    
Historical Graphs
 
 
Tabular Data for March 1, 2017
Time Temperature Dew Point Pressure Wind Wind Speed Wind Gust Humidity Rainfall Rate (Hourly) solar
00:02 15.0 °C 14.7 °C 1033.4 hPa NNW 2.6 km/h 5.0 km/h 98% 0.0 mm 0 W/m2
00:07 14.9 °C 14.8 °C 1033.4 hPa Calm   5.0 km/h 99% 0.0 mm 0 W/m2
00:12 14.8 °C 14.7 °C 1033.4 hPa Calm   5.0 km/h 99% 0.0 mm 0 W/m2
00:17 14.8 °C 14.7 °C 1033.4 hPa Calm   5.0 km/h 99% 0.0 mm 0 W/m2
00:22 14.8 °C 14.7 °C 1033.1 hPa Calm     99% 0.0 mm 0 W/m2
00:27 14.7 °C 14.6 °C 1033.4 hPa Calm   3.5 km/h 99% 0.0 mm 0 W/m2
00:32 14.7 °C 14.6 °C 1033.4 hPa Calm   3.5 km/h 99% 0.0 mm 0 W/m2
00:38 14.7 °C 14.6 °C 1033.4 hPa Calm     99% 0.0 mm 0 W/m2
00:43 14.7 °C 14.6 °C 1033.1 hPa Calm     99% 0.0 mm 0 W/m2
00:48 14.8 °C 14.7 °C 1033.1 hPa Calm     99% 0.0 mm 0 W/m2
00:53 14.7 °C 14.6 °C 1033.1 hPa Calm     99% 0.0 mm 0 W/m2
00:58 14.7 °C 14.6 °C 1033.1 hPa Calm   2.6 km/h 99% 0.0 mm 0 W/m2
01:03 14.6 °C 14.4 °C 1033.1 hPa Calm   2.6 km/h 99% 0.0 mm 0 W/m2
01:08 14.6 °C 14.4 °C 1033.1 hPa Calm     99% 0.0 mm 0 W/m2
01:13 14.6 °C 14.4 °C 1033.1 hPa Calm     99% 0.0 mm 0 W/m2
01:18 14.6 °C 14.4 °C 1033.1 hPa Calm     99% 0.0 mm 0 W/m2
01:23 14.6 °C 14.4 °C 1033.1 hPa Calm     99% 0.0 mm 0 W/m2
01:28 14.6 °C 14.4 °C 1033.1 hPa Calm     99% 0.0 mm 0 W/m2
01:33 14.5 °C 14.3 °C 1032.7 hPa Calm     99% 0.0 mm 0 W/m2
01:38 14.4 °C 14.3 °C 1032.7 hPa Calm     99% 0.0 mm 0 W/m2
01:43 14.3 °C 14.2 °C 1032.7 hPa Calm     99% 0.0 mm 0 W/m2
01:48 14.3 °C 14.2 °C 1032.7 hPa NW 2.6 km/h 5.0 km/h 99% 0.0 mm 0 W/m2
01:53 14.3 °C 14.2 °C 1032.7 hPa Calm   5.0 km/h 99% 0.0 mm 0 W/m2
01:58 14.2 °C 14.1 °C 1032.7 hPa Calm   5.0 km/h 99% 0.0 mm 0 W/m2
02:03 14.2 °C 14.1 °C 1032.7 hPa Calm   2.6 km/h 99% 0.0 mm 0 W/m2
02:08 14.1 °C 13.9 °C 1032.4 hPa NW 2.6 km/h 3.5 km/h 99% 0.0 mm 0 W/m2
02:13 14.1 °C 13.9 °C 1032.4 hPa NW 1.1 km/h 5.0 km/h 99% 0.0 mm 0 W/m2
02:18 14.0 °C 13.8 °C 1032.4 hPa Calm   5.0 km/h 99% 0.0 mm 0 W/m2
02:23 14.0 °C 13.8 °C 1032.4 hPa NNW 2.6 km/h 5.0 km/h 99% 0.0 mm 0 W/m2
02:28 14.0 °C 13.8 °C 1032.4 hPa Calm   5.0 km/h 99% 0.0 mm 0 W/m2
02:33 13.9 °C 13.8 °C 1032.4 hPa Calm   5.0 km/h 99% 0.0 mm 0 W/m2
02:38 13.9 °C 13.8 °C 1032.4 hPa Calm     99% 0.0 mm 0 W/m2
02:43 13.8 °C 13.7 °C 1032.1 hPa Calm     99% 0.0 mm 0 W/m2
02:48 13.8 °C 13.7 °C 1032.1 hPa Calm     99% 0.0 mm 0 W/m2
02:53 13.8 °C 13.7 °C 1032.4 hPa Calm   5.0 km/h 99% 0.0 mm 0 W/m2
02:58 13.7 °C 13.6 °C 1032.1 hPa Calm   5.0 km/h 99% 0.0 mm 0 W/m2
03:03 13.6 °C 13.4 °C 1032.1 hPa North 2.6 km/h 3.5 km/h 99% 0.0 mm 0 W/m2
03:08 13.6 °C 13.4 °C 1032.1 hPa Calm   5.0 km/h 99% 0.0 mm 0 W/m2
03:13 13.6 °C 13.4 °C 1032.1 hPa NNW 2.6 km/h 5.0 km/h 99% 0.0 mm 0 W/m2
03:18 13.6 °C 13.4 °C 1032.1 hPa NNW 2.6 km/h 5.0 km/h 99% 0.0 mm 0 W/m2
03:23 13.5 °C 13.3 °C 1032.1 hPa NNW 2.6 km/h 5.0 km/h 99% 0.0 mm 0 W/m2
03:27 13.5 °C 13.3 °C 1032.1 hPa NNW 2.6 km/h 5.0 km/h 99% 0.0 mm 0 W/m2
03:33 13.4 °C 13.3 °C 1032.1 hPa NNW 2.6 km/h 5.0 km/h 99% 0.0 mm 0 W/m2
03:38 13.3 °C 13.2 °C 1032.1 hPa NNW 1.1 km/h 5.0 km/h 99% 0.0 mm 0 W/m2
03:43 13.2 °C 13.1 °C 1032.1 hPa Calm   5.0 km/h 99% 0.0 mm 0 W/m2
03:48 13.2 °C 13.1 °C 1032.1 hPa Calm   3.5 km/h 99% 0.0 mm 0 W/m2
03:53 13.1 °C 12.9 °C 1032.1 hPa NW 3.5 km/h 6.1 km/h 99% 0.0 mm 0 W/m2
03:58 13.1 °C 12.9 °C 1031.7 hPa NW 2.6 km/h 6.1 km/h 99% 0.0 mm 0 W/m2
04:03 13.0 °C 12.8 °C 1031.7 hPa NW 2.6 km/h 6.1 km/h 99% 0.0 mm 0 W/m2
04:08 13.0 °C 12.8 °C 1031.7 hPa NW 3.5 km/h 6.1 km/h 99% 0.0 mm 0 W/m2
04:13 12.9 °C 12.4 °C 1031.4 hPa NW 3.5 km/h 7.2 km/h 97% 0.0 mm 0 W/m2
04:18 12.8 °C 12.3 °C 1031.7 hPa NW 5.0 km/h 9.7 km/h 97% 0.0 mm 0 W/m2
04:22 12.6 °C 12.2 °C 1031.7 hPa NW 6.1 km/h 9.7 km/h 97% 0.0 mm 0 W/m2
04:28 12.6 °C 12.2 °C 1031.7 hPa NNW 3.5 km/h 9.7 km/h 97% 0.0 mm 0 W/m2
04:33 12.5 °C 12.1 °C 1031.4 hPa NNW 3.5 km/h 9.7 km/h 97% 0.0 mm 0 W/m2
04:38 12.5 °C 12.1 °C 1031.4 hPa NNW 3.5 km/h 8.7 km/h 97% 0.0 mm 0 W/m2
04:43 12.4 °C 11.9 °C 1031.4 hPa NNW 5.0 km/h 8.7 km/h 97% 0.0 mm 0 W/m2
04:47 12.4 °C 11.9 °C 1031.4 hPa NNW 2.6 km/h 8.7 km/h 97% 0.0 mm 0 W/m2
04:52 12.4 °C 11.9 °C 1031.4 hPa NNW 3.5 km/h 8.7 km/h 97% 0.0 mm 0 W/m2
04:58 12.3 °C 11.8 °C 1031.4 hPa NNW 3.5 km/h 7.2 km/h 97% 0.0 mm 0 W/m2
05:03 12.3 °C 11.8 °C 1031.4 hPa NNW 5.0 km/h 8.7 km/h 97% 0.0 mm 0 W/m2
05:07 12.3 °C 11.8 °C 1031.4 hPa NNW 5.0 km/h 8.7 km/h 97% 0.0 mm 0 W/m2
05:12 12.3 °C 11.8 °C 1031.4 hPa NNW 6.1 km/h 8.7 km/h 97% 0.0 mm 0 W/m2
05:18 12.4 °C 11.9 °C 1031.4 hPa NNW 3.5 km/h 8.7 km/h 97% 0.0 mm 0 W/m2
05:22 12.5 °C 12.1 °C 1031.4 hPa North 5.0 km/h 8.7 km/h 97% 0.0 mm 0 W/m2
05:28 12.6 °C 12.2 °C 1031.0 hPa NNW 7.2 km/h 11.1 km/h 97% 0.0 mm 0 W/m2
05:32 12.6 °C 12.2 °C 1031.0 hPa NNW 6.1 km/h 11.1 km/h 97% 0.0 mm 0 W/m2
05:38 12.6 °C 12.2 °C 1031.0 hPa NNW 7.2 km/h 11.1 km/h 97% 0.0 mm 0 W/m2
05:43 12.6 °C 12.2 °C 1031.0 hPa NNW 7.2 km/h 11.1 km/h 97% 0.0 mm 0 W/m2
05:47 12.6 °C 12.2 °C 1031.0 hPa NNW 6.1 km/h 11.1 km/h 97% 0.0 mm 0 W/m2
05:53 12.6 °C 12.2 °C 1031.0 hPa NNW 8.7 km/h 11.1 km/h 97% 0.0 mm 0 W/m2
05:58 12.6 °C 12.2 °C 1031.4 hPa NNW 5.0 km/h 11.1 km/h 97% 0.0 mm 0 W/m2
06:03 12.6 °C 12.2 °C 1031.4 hPa NNW 6.1 km/h 12.2 km/h 97% 0.0 mm 0 W/m2
06:07 12.6 °C 12.2 °C 1031.0 hPa NNW 8.7 km/h 12.2 km/h 97% 0.0 mm 0 W/m2
06:12 12.6 °C 12.2 °C 1031.4 hPa NNW 1.1 km/h 11.1 km/h 97% 0.0 mm 0 W/m2
06:18 12.6 °C 12.2 °C 1031.0 hPa NNW 5.0 km/h 11.1 km/h 97% 0.0 mm 0 W/m2
06:22 12.6 °C 12.2 °C 1031.0 hPa NNW 3.5 km/h 11.1 km/h 97% 0.0 mm 0 W/m2
06:28 12.6 °C 12.2 °C 1031.4 hPa NNW 2.6 km/h 11.1 km/h 97% 0.0 mm 0 W/m2
06:33 12.6 °C 12.2 °C 1031.0 hPa NNW 5.0 km/h 7.2 km/h 97% 0.0 mm 0 W/m2
06:37 12.6 °C 12.2 °C 1031.4 hPa NNW 5.0 km/h 11.1 km/h 97% 0.0 mm 0 W/m2
06:42 12.6 °C 12.2 °C 1031.4 hPa NNW 5.0 km/h 13.4 km/h 97% 0.0 mm 0 W/m2
06:47 12.7 °C 12.2 °C 1031.4 hPa North 5.0 km/h 13.4 km/h 97% 0.0 mm 0 W/m2
06:52 12.6 °C 12.2 °C 1031.4 hPa North 7.2 km/h 12.2 km/h 97% 0.0 mm 1 W/m2
06:58 12.6 °C 12.2 °C 1031.4 hPa NNW 11.1 km/h 14.8 km/h 97% 0.0 mm 4 W/m2
07:02 12.6 °C 12.2 °C 1031.4 hPa NNW 5.0 km/h 14.8 km/h 97% 0.0 mm 5 W/m2
07:08 12.6 °C 12.2 °C 1031.4 hPa North 8.7 km/h 13.4 km/h 97% 0.0 mm 10 W/m2
07:13 12.6 °C 12.2 °C 1031.4 hPa North 9.7 km/h 13.4 km/h 97% 0.0 mm 13 W/m2
07:17 12.7 °C 12.2 °C 1031.4 hPa NNW 7.2 km/h 13.4 km/h 97% 0.0 mm 19 W/m2
07:22 12.8 °C 12.3 °C 1031.0 hPa NNW 5.0 km/h 12.2 km/h 97% 0.0 mm 24 W/m2
07:28 12.9 °C 12.4 °C 1031.4 hPa North 3.5 km/h 12.2 km/h 97% 0.0 mm 32 W/m2
07:32 12.9 °C 12.4 °C 1031.0 hPa NNW 6.1 km/h 11.1 km/h 97% 0.0 mm 38 W/m2
07:38 12.9 °C 12.4 °C 1031.0 hPa North 5.0 km/h 11.1 km/h 97% 0.0 mm 41 W/m2
07:43 12.9 °C 12.4 °C 1031.0 hPa North 8.7 km/h 12.2 km/h 97% 0.0 mm 35 W/m2
07:47 12.7 °C 12.2 °C 1031.0 hPa NNW 8.7 km/h 12.2 km/h 97% 0.0 mm 39 W/m2
07:52 12.7 °C 12.2 °C 1031.0 hPa NNW 8.7 km/h 13.4 km/h 97% 0.0 mm 44 W/m2
07:57 12.8 °C 12.3 °C 1031.0 hPa North 8.7 km/h 13.4 km/h 97% 0.0 mm 64 W/m2
08:02 12.9 °C 12.4 °C 1031.4 hPa North 6.1 km/h 12.2 km/h 97% 0.0 mm 68 W/m2
08:08 13.0 °C 12.8 °C 1031.0 hPa NNW 5.0 km/h 12.2 km/h 99% 0.0 mm 79 W/m2
08:12 13.2 °C 13.1 °C 1031.4 hPa NNW 8.7 km/h 11.1 km/h 99% 0.0 mm 84 W/m2
08:17 13.1 °C 12.9 °C 1031.4 hPa NNW 3.5 km/h 13.4 km/h 99% 0.0 mm 98 W/m2
08:22 13.4 °C 13.3 °C 1031.4 hPa NNW 6.1 km/h 13.4 km/h 99% 0.0 mm 105 W/m2
08:28 13.4 °C 13.3 °C 1031.4 hPa NW 7.2 km/h 11.1 km/h 99% 0.0 mm 95 W/m2
08:32 13.3 °C 13.2 °C 1031.0 hPa NNW 3.5 km/h 11.1 km/h 99% 0.0 mm 105 W/m2
08:37 13.4 °C 13.3 °C 1031.0 hPa NNW 8.7 km/h 12.2 km/h 99% 0.0 mm 122 W/m2
08:42 13.4 °C 13.3 °C 1031.0 hPa NW 8.7 km/h 13.4 km/h 99% 0.0 mm 101 W/m2
08:47 13.3 °C 13.2 °C 1031.0 hPa NNW 5.0 km/h 13.4 km/h 99% 0.0 mm 121 W/m2
08:52 13.4 °C 13.3 °C 1031.0 hPa NW 7.2 km/h 13.4 km/h 99% 0.0 mm 132 W/m2
08:57 13.5 °C 13.3 °C 1031.0 hPa NNW 7.2 km/h 13.4 km/h 99% 0.0 mm 132 W/m2
09:02 13.7 °C 13.6 °C 1031.4 hPa NNW 7.2 km/h 12.2 km/h 99% 0.0 mm 138 W/m2
09:07 13.8 °C 13.7 °C 1031.0 hPa NNW 8.7 km/h 12.2 km/h 99% 0.0 mm 194 W/m2
09:12 14.1 °C 13.9 °C 1031.4 hPa NNW 7.2 km/h 13.4 km/h 99% 0.3 mm 209 W/m2
09:17 14.0 °C 13.8 °C 1031.4 hPa North 6.1 km/h 13.4 km/h 99% 0.3 mm 265 W/m2
09:22 14.6 °C 14.4 °C 1031.0 hPa North 5.0 km/h 13.4 km/h 99% 0.3 mm 251 W/m2
09:27 14.5 °C 14.3 °C 1031.0 hPa NNW 6.1 km/h 12.2 km/h 99% 0.3 mm 236 W/m2
09:32 14.6 °C 14.4 °C 1031.0 hPa NNW 7.2 km/h 12.2 km/h 99% 0.3 mm 298 W/m2
09:37 14.8 °C 14.7 °C 1031.4 hPa NNW 7.2 km/h 11.1 km/h 99% 0.3 mm 205 W/m2
09:42 15.0 °C 14.8 °C 1031.4 hPa NNW 3.5 km/h 11.1 km/h 99% 0.3 mm 313 W/m2
09:47 15.2 °C 15.1 °C 1031.0 hPa NNW 9.7 km/h 12.2 km/h 99% 0.3 mm 344 W/m2
09:52 15.3 °C 15.2 °C 1031.0 hPa NNW 8.7 km/h 12.2 km/h 99% 0.3 mm 304 W/m2
09:57 15.4 °C 15.3 °C 1031.4 hPa NNW 11.1 km/h 12.2 km/h 99% 0.3 mm 379 W/m2
10:02 15.7 °C 15.6 °C 1031.4 hPa NNW 5.0 km/h 12.2 km/h 99% 0.3 mm 391 W/m2
10:07 16.1 °C 15.8 °C 1031.4 hPa NW 6.1 km/h 12.2 km/h 98% 0.3 mm 408 W/m2
10:12 16.7 °C 16.4 °C 1031.4 hPa NW 5.0 km/h 12.2 km/h 98% 0.0 mm 433 W/m2
10:17 17.3 °C 16.8 °C 1031.4 hPa NW 5.0 km/h 11.1 km/h 97% 0.0 mm 459 W/m2
10:22 17.7 °C 17.2 °C 1031.4 hPa NW 3.5 km/h 11.1 km/h 97% 0.0 mm 470 W/m2
10:27 18.3 °C 17.2 °C 1031.4 hPa NNW 6.1 km/h 11.1 km/h 93% 0.0 mm 191 W/m2
10:32 18.7 °C 16.5 °C 1031.0 hPa NNW 1.1 km/h 9.7 km/h 87% 0.0 mm 438 W/m2
10:37 19.2 °C 16.3 °C 1031.4 hPa NNW 2.6 km/h 9.7 km/h 83% 0.0 mm 81 W/m2
10:42 19.5 °C 15.6 °C 1031.0 hPa NNW 2.6 km/h 9.7 km/h 78% 0.0 mm 501 W/m2
10:47 20.1 °C 15.8 °C 1031.0 hPa Calm   9.7 km/h 76% 0.0 mm 526 W/m2
11:08 22.1 °C 15.2 °C 1031.0 hPa WSW 3.5 km/h 6.1 km/h 65% 0.0 mm 603 W/m2
11:13 22.4 °C 15.3 °C 1030.7 hPa Calm   6.1 km/h 64% 0.0 mm 631 W/m2
11:18 22.8 °C 15.4 °C 1031.0 hPa SSW 2.6 km/h 6.1 km/h 63% 0.0 mm 646 W/m2
11:23 23.0 °C 15.3 °C 1030.7 hPa Calm   6.1 km/h 62% 0.0 mm 656 W/m2
11:28 23.4 °C 14.9 °C 1030.7 hPa East 3.5 km/h 6.1 km/h 59% 0.0 mm 238 W/m2
11:33 22.9 °C 15.0 °C 1030.7 hPa Calm   8.7 km/h 61% 0.0 mm 684 W/m2
11:38 23.7 °C 14.9 °C 1030.7 hPa NNE 3.5 km/h 8.7 km/h 58% 0.0 mm 714 W/m2
11:43 23.3 °C 15.6 °C 1030.7 hPa SSE 5.0 km/h 11.1 km/h 62% 0.0 mm 725 W/m2
11:48 22.6 °C 15.2 °C 1030.7 hPa SE 6.1 km/h 12.2 km/h 63% 0.0 mm 737 W/m2
11:53 22.2 °C 15.1 °C 1030.4 hPa SE 6.1 km/h 12.2 km/h 64% 0.0 mm 747 W/m2
11:58 21.9 °C 15.3 °C 1030.4 hPa SE 5.0 km/h 13.4 km/h 66% 0.0 mm 755 W/m2
12:03 22.1 °C 15.2 °C 1030.4 hPa SSE 5.0 km/h 13.4 km/h 65% 0.0 mm 770 W/m2
12:08 22.1 °C 15.0 °C 1030.0 hPa SE 6.1 km/h 12.2 km/h 64% 0.0 mm 783 W/m2
12:13 22.1 °C 15.2 °C 1030.0 hPa SE 5.0 km/h 12.2 km/h 65% 0.0 mm 799 W/m2
12:18 21.9 °C 15.5 °C 1030.0 hPa SSE 7.2 km/h 13.4 km/h 67% 0.0 mm 813 W/m2
12:23 22.0 °C 15.6 °C 1030.0 hPa SSE 2.6 km/h 13.4 km/h 67% 0.0 mm 825 W/m2
12:28 22.4 °C 15.5 °C 1030.0 hPa SSE 2.6 km/h 11.1 km/h 65% 0.0 mm 840 W/m2
12:33 22.3 °C 15.4 °C 1030.0 hPa SE 6.1 km/h 11.1 km/h 65% 0.0 mm 855 W/m2
12:38 22.2 °C 15.6 °C 1030.0 hPa SSE 5.0 km/h 13.4 km/h 66% 0.0 mm 870 W/m2
12:43 22.0 °C 15.4 °C 1029.7 hPa SE 5.0 km/h 13.4 km/h 66% 0.0 mm 882 W/m2
12:48 22.0 °C 15.8 °C 1029.7 hPa SSE 8.7 km/h 13.4 km/h 68% 0.0 mm 893 W/m2
12:53 21.9 °C 15.9 °C 1029.7 hPa SSE 3.5 km/h 13.4 km/h 69% 0.0 mm 898 W/m2
12:58 22.3 °C 15.9 °C 1029.7 hPa SE 6.1 km/h 13.4 km/h 67% 0.0 mm 911 W/m2
13:03 22.1 °C 15.9 °C 1029.7 hPa SSE 5.0 km/h 12.2 km/h 68% 0.0 mm 912 W/m2
13:08 22.1 °C 15.9 °C 1029.7 hPa SSE 9.7 km/h 13.4 km/h 68% 0.0 mm 919 W/m2
13:13 22.1 °C 16.4 °C 1029.3 hPa SE 8.7 km/h 13.4 km/h 70% 0.0 mm 915 W/m2
13:18 22.2 °C 16.3 °C 1029.3 hPa SSE 7.2 km/h 13.4 km/h 69% 0.0 mm 918 W/m2
13:23 22.3 °C 16.6 °C 1029.3 hPa SSE 6.1 km/h 12.2 km/h 70% 0.0 mm 917 W/m2
13:28 22.1 °C 16.4 °C 1029.3 hPa SSE 2.6 km/h 14.8 km/h 70% 0.0 mm 913 W/m2
13:33 22.5 °C 17.0 °C 1029.3 hPa South 5.0 km/h 14.8 km/h 71% 0.0 mm 917 W/m2
13:38 22.9 °C 16.9 °C 1029.3 hPa SE 6.1 km/h 13.4 km/h 69% 0.0 mm 914 W/m2
13:43 22.5 °C 16.6 °C 1029.3 hPa SE 6.1 km/h 15.8 km/h 69% 0.0 mm 906 W/m2
13:48 22.5 °C 17.0 °C 1029.3 hPa SE 8.7 km/h 15.8 km/h 71% 0.0 mm 902 W/m2
13:53 22.6 °C 16.7 °C 1029.3 hPa SE 6.1 km/h 14.8 km/h 69% 0.0 mm 896 W/m2
13:58 22.5 °C 16.6 °C 1029.3 hPa SE 9.7 km/h 13.4 km/h 69% 0.0 mm 888 W/m2
14:03 22.7 °C 16.9 °C 1029.3 hPa SE 5.0 km/h 13.4 km/h 70% 0.0 mm 882 W/m2
14:08 22.6 °C 17.1 °C 1029.3 hPa SSE 7.2 km/h 13.4 km/h 71% 0.0 mm 874 W/m2
14:13 22.5 °C 16.8 °C 1029.3 hPa SSE 9.7 km/h 14.8 km/h 70% 0.0 mm 863 W/m2
14:18 22.5 °C 17.0 °C 1029.0 hPa SSE 5.0 km/h 14.8 km/h 71% 0.0 mm 851 W/m2
14:23 23.1 °C 17.3 °C 1029.0 hPa SE 7.2 km/h 14.8 km/h 70% 0.0 mm 779 W/m2
14:28 23.0 °C 16.8 °C 1028.7 hPa Calm   14.8 km/h 68% 0.0 mm 833 W/m2
14:33 23.5 °C 17.3 °C 1028.7 hPa SSE 6.1 km/h 14.8 km/h 68% 0.0 mm 642 W/m2
14:38 23.6 °C 17.4 °C 1028.7 hPa SE 9.7 km/h 13.4 km/h 68% 0.0 mm 577 W/m2
14:43 23.4 °C 16.9 °C 1028.7 hPa ESE 2.6 km/h 14.8 km/h 67% 0.0 mm 797 W/m2
14:48 23.4 °C 17.2 °C 1028.7 hPa SSE 5.0 km/h 14.8 km/h 68% 0.0 mm 631 W/m2
14:53 23.7 °C 17.0 °C 1028.7 hPa SSE 7.2 km/h 13.4 km/h 66% 0.0 mm 756 W/m2
14:58 23.3 °C 16.6 °C 1028.7 hPa SE 1.1 km/h 17.2 km/h 66% 0.0 mm 561 W/m2
15:03 24.1 °C 17.1 °C 1028.3 hPa SE 5.0 km/h 17.2 km/h 65% 0.0 mm 739 W/m2
15:08 24.3 °C 17.1 °C 1028.3 hPa East 1.1 km/h 13.4 km/h 64% 0.0 mm 725 W/m2
15:13 24.2 °C 16.7 °C 1028.3 hPa SSE 6.1 km/h 14.8 km/h 63% 0.0 mm 712 W/m2
15:18 24.2 °C 17.0 °C 1028.0 hPa SSE 3.5 km/h 14.8 km/h 64% 0.0 mm 691 W/m2
15:23 24.1 °C 16.1 °C 1028.0 hPa SSE 7.2 km/h 14.8 km/h 61% 0.0 mm 680 W/m2
15:28 24.6 °C 16.8 °C 1028.0 hPa Calm   11.1 km/h 62% 0.0 mm 647 W/m2
15:33 25.0 °C 16.4 °C 1028.0 hPa SE 5.0 km/h 12.2 km/h 59% 0.0 mm 622 W/m2
15:38 24.9 °C 16.1 °C 1028.0 hPa SSE 5.0 km/h 12.2 km/h 58% 0.0 mm 506 W/m2
15:43 24.8 °C 16.8 °C 1028.0 hPa SE 1.1 km/h 12.2 km/h 61% 0.0 mm 622 W/m2
15:48 24.8 °C 17.1 °C 1027.7 hPa Calm   14.8 km/h 62% 0.0 mm 606 W/m2
15:53 24.8 °C 16.3 °C 1027.7 hPa Calm   14.8 km/h 59% 0.0 mm 594 W/m2
15:58 25.2 °C 16.1 °C 1027.7 hPa SE 2.6 km/h 9.7 km/h 57% 0.0 mm 580 W/m2
16:03 25.2 °C 15.6 °C 1027.7 hPa SE 1.1 km/h 13.4 km/h 55% 0.0 mm 565 W/m2
16:08 25.1 °C 15.4 °C 1027.7 hPa Calm   15.8 km/h 55% 0.0 mm 535 W/m2
16:13 25.2 °C 15.6 °C 1027.3 hPa Calm   15.8 km/h 55% 0.0 mm 203 W/m2
16:18 25.6 °C 15.3 °C 1027.3 hPa Calm   5.0 km/h 53% 0.0 mm 515 W/m2
16:23 25.9 °C 15.0 °C 1027.3 hPa Calm   5.0 km/h 51% 0.0 mm 508 W/m2
16:28 25.5 °C 14.7 °C 1027.3 hPa Calm   3.5 km/h 51% 0.0 mm 499 W/m2
16:33 25.8 °C 14.9 °C 1027.3 hPa Calm   1.1 km/h 51% 0.0 mm 485 W/m2
16:38 26.1 °C 14.6 °C 1027.3 hPa Calm     49% 0.0 mm 472 W/m2
16:43 26.3 °C 14.4 °C 1027.3 hPa Calm     48% 0.0 mm 459 W/m2
16:48 26.6 °C 14.1 °C 1027.3 hPa Calm   1.1 km/h 46% 0.0 mm 430 W/m2
16:53 26.5 °C 14.6 °C 1027.0 hPa Calm   1.1 km/h 48% 0.0 mm 430 W/m2
16:58 26.5 °C 14.3 °C 1027.0 hPa Calm     47% 0.0 mm 416 W/m2
17:03 26.8 °C 14.6 °C 1027.0 hPa Calm     47% 0.0 mm 403 W/m2
17:08 26.7 °C 14.8 °C 1027.0 hPa Calm     48% 0.0 mm 388 W/m2
17:13 26.6 °C 15.3 °C 1027.0 hPa Calm     50% 0.0 mm 371 W/m2
17:31 26.4 °C 15.2 °C 1027.0 hPa Calm   1.1 km/h 50% 0.0 mm 316 W/m2
17:36 26.8 °C 14.9 °C 1026.6 hPa Calm     48% 0.0 mm 302 W/m2
17:41 26.9 °C 15.0 °C 1027.0 hPa Calm     48% 0.0 mm 287 W/m2
17:46 27.1 °C 14.5 °C 1026.6 hPa Calm     46% 0.0 mm 272 W/m2
17:51 26.7 °C 14.2 °C 1026.6 hPa Calm     46% 0.0 mm 257 W/m2
17:56 26.5 °C 14.3 °C 1026.6 hPa Calm     47% 0.0 mm 242 W/m2
18:01 26.5 °C 15.3 °C 1026.6 hPa Calm     50% 0.0 mm 225 W/m2
18:06 26.7 °C 16.1 °C 1026.3 hPa Calm   1.1 km/h 52% 0.0 mm 210 W/m2
18:11 26.5 °C 15.9 °C 1026.3 hPa Calm   1.1 km/h 52% 0.0 mm 196 W/m2
18:16 26.4 °C 16.1 °C 1026.3 hPa Calm     53% 0.0 mm 162 W/m2
18:21 25.8 °C 16.1 °C 1026.3 hPa Calm     55% 0.0 mm 52 W/m2
18:26 25.0 °C 16.2 °C 1026.3 hPa Calm     58% 0.0 mm 63 W/m2
18:31 24.4 °C 16.4 °C 1026.3 hPa Calm     61% 0.0 mm 75 W/m2
18:36 23.9 °C 16.7 °C 1026.3 hPa Calm     64% 0.0 mm 68 W/m2
18:41 24.3 °C 17.1 °C 1026.3 hPa Calm     64% 0.0 mm 104 W/m2
18:46 24.4 °C 16.7 °C 1026.3 hPa Calm     62% 0.0 mm 41 W/m2
18:51 23.7 °C 16.7 °C 1026.0 hPa Calm     65% 0.0 mm 42 W/m2
18:56 23.5 °C 16.8 °C 1026.3 hPa Calm     66% 0.0 mm 62 W/m2
19:01 23.7 °C 16.7 °C 1026.3 hPa Calm     65% 0.0 mm 43 W/m2
19:06 24.0 °C 17.1 °C 1026.3 hPa Calm     65% 0.0 mm 44 W/m2
19:11 24.3 °C 17.1 °C 1026.0 hPa Calm     64% 0.0 mm 32 W/m2
19:30 21.9 °C 16.7 °C 1026.3 hPa Calm     72% 0.0 mm 17 W/m2
19:35 21.4 °C 16.2 °C 1026.0 hPa Calm     72% 0.0 mm 12 W/m2
19:40 21.1 °C 15.9 °C 1026.3 hPa Calm     72% 0.0 mm 10 W/m2
19:45 20.7 °C 15.7 °C 1026.0 hPa Calm     73% 0.0 mm 6 W/m2
19:50 20.4 °C 15.6 °C 1026.3 hPa Calm     74% 0.0 mm 4 W/m2
19:55 20.2 °C 15.8 °C 1026.0 hPa Calm     76% 0.0 mm 2 W/m2
20:00 19.9 °C 15.9 °C 1026.0 hPa Calm     78% 0.0 mm 0 W/m2
20:05 19.4 °C 15.3 °C 1026.3 hPa Calm     77% 0.0 mm 0 W/m2
20:10 19.4 °C 15.7 °C 1026.0 hPa Calm     79% 0.0 mm 0 W/m2
20:15 19.2 °C 15.7 °C 1026.0 hPa Calm     80% 0.0 mm 0 W/m2
20:20 19.1 °C 16.2 °C 1026.0 hPa Calm     83% 0.0 mm 0 W/m2
20:25 18.9 °C 16.3 °C 1026.3 hPa Calm     85% 0.0 mm 0 W/m2
20:30 18.7 °C 16.2 °C 1026.3 hPa Calm     85% 0.0 mm 0 W/m2
20:35 18.5 °C 16.1 °C 1026.3 hPa Calm     86% 0.0 mm 0 W/m2
20:40 18.4 °C 16.2 °C 1026.3 hPa Calm     87% 0.0 mm 0 W/m2
20:45 18.3 °C 16.3 °C 1026.3 hPa Calm     88% 0.0 mm 0 W/m2
20:50 18.2 °C 16.2 °C 1026.3 hPa Calm     88% 0.0 mm 0 W/m2
20:55 18.0 °C 16.2 °C 1026.6 hPa Calm     89% 0.0 mm 0 W/m2
21:00 17.9 °C 16.1 °C 1026.6 hPa Calm     89% 0.0 mm 0 W/m2
21:05 17.8 °C 16.0 °C 1026.6 hPa Calm     89% 0.0 mm 0 W/m2
21:10 17.8 °C 16.0 °C 1026.6 hPa Calm     89% 0.0 mm 0 W/m2
21:15 17.7 °C 15.9 °C 1026.6 hPa Calm     89% 0.0 mm 0 W/m2
21:20 17.6 °C 15.6 °C 1027.0 hPa NW 3.5 km/h 7.2 km/h 88% 0.0 mm 0 W/m2
21:25 17.6 °C 15.8 °C 1026.6 hPa NW 2.6 km/h 7.2 km/h 89% 0.0 mm 0 W/m2
21:30 17.6 °C 15.6 °C 1026.6 hPa Calm   6.1 km/h 88% 0.0 mm 0 W/m2
21:35 17.4 °C 15.2 °C 1027.0 hPa Calm   3.5 km/h 87% 0.0 mm 0 W/m2
21:40 17.2 °C 15.0 °C 1027.0 hPa Calm   3.5 km/h 87% 0.0 mm 0 W/m2
21:45 17.0 °C 14.8 °C 1027.0 hPa NW 1.1 km/h 3.5 km/h 87% 0.0 mm 0 W/m2
21:50 16.9 °C 14.9 °C 1027.0 hPa NNW 3.5 km/h 5.0 km/h 88% 0.0 mm 0 W/m2
21:55 16.8 °C 15.0 °C 1027.0 hPa NNW 2.6 km/h 6.1 km/h 89% 0.0 mm 0 W/m2
22:00 16.8 °C 15.0 °C 1027.0 hPa NNW 2.6 km/h 6.1 km/h 89% 0.0 mm 0 W/m2
22:05 16.7 °C 14.9 °C 1027.0 hPa Calm   5.0 km/h 89% 0.0 mm 0 W/m2
22:10 16.6 °C 14.8 °C 1027.0 hPa Calm   3.5 km/h 89% 0.0 mm 0 W/m2
22:15 16.5 °C 14.7 °C 1026.6 hPa Calm     89% 0.0 mm 0 W/m2
22:20 16.5 °C 14.9 °C 1027.0 hPa Calm     90% 0.0 mm 0 W/m2
22:25 16.5 °C 14.9 °C 1026.6 hPa North 3.5 km/h 5.0 km/h 90% 0.0 mm 0 W/m2
22:30 16.5 °C 14.9 °C 1027.0 hPa North 1.1 km/h 5.0 km/h 90% 0.0 mm 0 W/m2
22:35 16.4 °C 14.8 °C 1026.6 hPa North 5.0 km/h 6.1 km/h 90% 0.0 mm 0 W/m2
22:40 16.4 °C 14.8 °C 1026.6 hPa North 3.5 km/h 7.2 km/h 90% 0.0 mm 0 W/m2
22:45 16.4 °C 14.8 °C 1026.6 hPa Calm   7.2 km/h 90% 0.0 mm 0 W/m2
22:50 16.4 °C 14.8 °C 1026.6 hPa Calm   6.1 km/h 90% 0.0 mm 0 W/m2
22:55 16.3 °C 14.7 °C 1026.6 hPa Calm   5.0 km/h 90% 0.0 mm 0 W/m2
23:13 16.1 °C 14.8 °C 1026.6 hPa Calm   1.1 km/h 92% 0.0 mm 0 W/m2
23:18 16.0 °C 14.7 °C 1026.3 hPa Calm   1.1 km/h 92% 0.0 mm 0 W/m2
23:23 16.0 °C 14.7 °C 1026.3 hPa Calm     92% 0.0 mm 0 W/m2
23:28 16.0 °C 14.7 °C 1026.3 hPa Calm     92% 0.0 mm 0 W/m2
23:33 15.9 °C 14.8 °C 1026.3 hPa Calm     93% 0.0 mm 0 W/m2
23:38 15.9 °C 14.8 °C 1026.3 hPa Calm     93% 0.0 mm 0 W/m2
23:43 15.8 °C 14.7 °C 1026.0 hPa Calm     93% 0.0 mm 0 W/m2
23:48 15.8 °C 14.7 °C 1026.3 hPa Calm     93% 0.0 mm 0 W/m2
23:53 15.7 °C 14.6 °C 1026.3 hPa Calm     93% 0.0 mm 0 W/m2
23:58 15.6 °C 14.5 °C 1026.3 hPa Calm     93% 0.0 mm 0 W/m2
Northern Hawkes Bay. New Zealand Historic Data
Compliments of Weather Underground - 2.25 mb